CheckWX is a tool to help pilots better visualize weather data.  It is not intended as a substitute for an official pre-flight weather briefing.

19:48:35 UTC

SPQT TAF
Coronel FAP Francisco Secada Vignetta International Airport
Iquitos, Peru
TAF SPQT 201700Z 2018/2118 22003KT 9999 BKN015 SCT100 TX31/2019Z TN23/2111Z TEMPO 2021/2023 03008KT 5000 SHRA BKN012 FEW020TCU BECMG 2100/2102 SCT015 SCT100 PROB40 TEMPO 2108/2112 24003KT 1000 BR BKN003 SCT080 BECMG 2113/2115 02003KT BKN015

Jun-20@
18:00 UTC

Jun-20 @ 18:00 UTC

Jun-21@
00:00 UTC

Jun-21 @ 00:00 UTC

TAF SPQT 201700Z 2018/2118 22003KT 9999 BKN015 SCT100 TX31/2019Z TN23/2111Z
Wind
  • 220° at 3 KTS
Cloud Levels
  • Broken at 1,500' AGL
  • Scattered at 10,000' AGL

Jun-20@
21:00 UTC

Jun-20 @ 21:00 UTC

Jun-20@
23:00 UTC

Jun-20 @ 23:00 UTC

TEMPO 2021/2023 03008KT 5000 SHRA BKN012 FEW020TCU

Temporary

Temporary Changes expected for less than half the time period

Wind
  • 030° at 8 KTS
Conditions
Rain
Cloud Levels
  • Broken at 1,200' AGL
  • Few at 2,000' AGL

Jun-21@
00:00 UTC

Jun-21 @ 00:00 UTC

Jun-21@
13:00 UTC

Jun-21 @ 13:00 UTC

BECMG 2100/2102 SCT015 SCT100

Becoming

Becoming Conditions expected by Fri, Jun 21, 2019 @ 02:00 UTC

Wind
  • 220° at 3 KTS
Cloud Levels
  • Scattered at 1,500' AGL
  • Scattered at 10,000' AGL

Jun-21@
08:00 UTC

Jun-21 @ 08:00 UTC

Jun-21@
12:00 UTC

Jun-21 @ 12:00 UTC

PROB40 TEMPO 2108/2112 24003KT 1000 BR BKN003 SCT080

Temporary - 40% Likelihood

Temporary - 40% Likelihood during this time.

Wind
  • 240° at 3 KTS
Conditions
Mist
Cloud Levels
  • Broken at 300' AGL
  • Scattered at 8,000' AGL

Jun-21@
13:00 UTC

Jun-21 @ 13:00 UTC

Jun-21@
18:00 UTC

Jun-21 @ 18:00 UTC

BECMG 2113/2115 02003KT BKN015

Becoming

Becoming Conditions expected by Fri, Jun 21, 2019 @ 15:00 UTC

Wind
  • 020° at 3 KTS
Cloud Levels
  • Broken at 1,500' AGL